Time;durP1;ratioP1;P1;durP2;ratioP2;P2;SDS_P1;SDS_P2;PMS_P1;PMS_P2;Temp;Humidity;BMP_temperature;BMP_pressure;BME280_temperature;BME280_humidity;BME280_pressure;Samples;Min_cycle;Max_cycle;Signal;HPM_P1;HPM_P2
2022/06/21 00:01:35;;;;;;;4.28;2.60;;;;;;;11.96;100.00;99171.22;5103311;28;20579;-57
2022/06/21 00:04:19;;;;;;;3.13;2.78;;;;;;;11.83;100.00;99165.59;5102087;28;20043;-57
2022/06/21 00:07:06;;;;;;;2.85;2.55;;;;;;;11.80;100.00;99157.00;5101363;28;20390;-55
2022/06/21 00:09:50;;;;;;;3.20;2.80;;;;;;;11.64;100.00;99162.00;5100828;28;20056;-56
2022/06/21 00:12:35;;;;;;;3.58;2.95;;;;;;;11.57;100.00;99168.38;5098760;28;20048;-55
2022/06/21 00:15:20;;;;;;;5.13;3.17;;;;;;;11.51;100.00;99155.53;5111430;28;20047;-54
2022/06/21 00:18:10;;;;;;;3.60;2.80;;;;;;;11.53;100.00;99166.78;5103106;28;20049;-54
2022/06/21 00:20:55;;;;;;;3.33;2.85;;;;;;;11.45;100.00;99170.56;5102843;28;20067;-56
2022/06/21 00:23:41;;;;;;;5.35;2.65;;;;;;;11.34;100.00;99164.91;5106714;28;20036;-54
2022/06/21 00:26:28;;;;;;;2.50;2.30;;;;;;;11.35;100.00;99169.22;5106681;28;20048;-54
2022/06/21 00:29:13;;;;;;;5.03;2.50;;;;;;;11.32;100.00;99164.09;5100940;28;20044;-55
2022/06/21 00:31:58;;;;;;;2.53;2.33;;;;;;;11.34;100.00;99161.38;5104718;28;20043;-54
2022/06/21 00:34:44;;;;;;;3.08;2.78;;;;;;;11.15;100.00;99159.50;5100466;28;20040;-56
2022/06/21 00:37:29;;;;;;;4.22;2.63;;;;;;;11.22;100.00;99149.63;5099906;28;20031;-56
2022/06/21 00:40:26;;;;;;;2.90;2.20;;;;;;;11.18;100.00;99154.13;5100442;28;20494;-55
2022/06/21 00:43:26;;;;;;;6.18;2.63;;;;;;;11.11;100.00;99143.91;5102364;28;20518;-56
2022/06/21 00:47:01;;;;;;;2.58;2.13;;;;;;;11.21;100.00;99145.28;5100337;28;20047;-56
2022/06/21 00:50:01;;;;;;;3.03;2.40;;;;;;;11.16;100.00;99140.22;5100961;28;20066;-55
2022/06/21 00:53:20;;;;;;;2.30;2.10;;;;;;;11.14;100.00;99139.41;5100709;28;20048;-55
2022/06/21 00:56:17;;;;;;;2.42;2.10;;;;;;;11.16;100.00;99147.22;5102476;28;20486;-54
2022/06/21 00:59:28;;;;;;;5.93;2.35;;;;;;;11.06;100.00;99144.09;5103615;28;20039;-52
2022/06/21 01:02:42;;;;;;;2.80;2.33;;;;;;;11.18;100.00;99162.00;5100482;28;20036;-54
2022/06/21 01:05:31;;;;;;;7.78;2.45;;;;;;;11.18;100.00;99153.28;5101688;28;20508;-55
2022/06/21 01:08:24;;;;;;;6.53;2.50;;;;;;;11.17;100.00;99155.03;5106918;27;20047;-55
2022/06/21 01:11:19;;;;;;;5.03;2.65;;;;;;;11.24;100.00;99158.25;5104861;27;20356;-54
2022/06/21 01:14:05;;;;;;;3.38;2.08;;;;;;;11.20;100.00;99152.28;5106975;27;20040;-53
2022/06/21 01:16:51;;;;;;;2.60;2.40;;;;;;;11.26;100.00;99155.59;5104654;27;20474;-53
2022/06/21 01:19:37;;;;;;;4.75;2.00;;;;;;;11.15;100.00;99163.88;5104325;27;20040;-54
2022/06/21 01:22:37;;;;;;;3.25;1.70;;;;;;;11.14;100.00;99149.03;5103469;27;20031;-54
2022/06/21 01:25:38;;;;;;;1.73;1.60;;;;;;;11.08;100.00;99147.53;5102464;27;20043;-53
2022/06/21 01:28:24;;;;;;;4.00;2.25;;;;;;;11.06;100.00;99157.22;5106189;27;20355;-55
2022/06/21 01:31:09;;;;;;;3.28;1.60;;;;;;;11.09;100.00;99151.00;5105896;27;20137;-53
2022/06/21 01:33:53;;;;;;;6.80;1.60;;;;;;;11.02;100.00;99153.00;5106157;28;20047;-56
2022/06/21 01:36:39;;;;;;;3.80;1.25;;;;;;;11.06;100.00;99170.31;5105188;27;20056;-55
2022/06/21 01:39:36;;;;;;;2.17;1.42;;;;;;;11.08;100.00;99160.63;5110521;27;20048;-56
2022/06/21 01:42:38;;;;;;;1.48;1.38;;;;;;;10.82;100.00;99160.72;5106957;27;20541;-53
2022/06/21 01:45:32;;;;;;;1.98;1.35;;;;;;;10.76;100.00;99154.81;5103635;27;20187;-55
2022/06/21 01:48:48;;;;;;;4.30;1.60;;;;;;;10.63;100.00;99150.91;5105864;27;20096;-55
2022/06/21 01:51:49;;;;;;;2.22;1.40;;;;;;;10.64;100.00;99155.25;5107157;27;20040;-54
2022/06/21 01:54:38;;;;;;;1.63;1.17;;;;;;;10.60;100.00;99160.66;5104178;27;20074;-55
2022/06/21 01:57:23;;;;;;;2.17;1.25;;;;;;;10.52;100.00;99166.13;5105455;27;20043;-57
2022/06/21 02:00:08;;;;;;;1.70;1.30;;;;;;;10.62;100.00;99164.06;5104782;27;21120;-56
2022/06/21 02:03:04;;;;;;;1.58;1.00;;;;;;;10.65;100.00;99166.56;5104956;27;20039;-58
2022/06/21 02:05:54;;;;;;;1.35;1.25;;;;;;;10.61;100.00;99176.28;5107370;27;20032;-55
2022/06/21 02:08:46;;;;;;;2.10;1.20;;;;;;;10.61;100.00;99163.19;5104177;27;20730;-56
2022/06/21 02:12:03;;;;;;;2.00;1.48;;;;;;;10.70;100.00;99159.41;5108113;27;20055;-55
2022/06/21 02:14:55;;;;;;;1.67;1.13;;;;;;;10.58;100.00;99160.69;5104983;27;20043;-57
2022/06/21 02:17:44;;;;;;;1.52;1.10;;;;;;;10.68;100.00;99162.06;5108294;27;20039;-55
2022/06/21 02:20:53;;;;;;;3.55;1.30;;;;;;;10.68;100.00;99161.22;5109882;27;20047;-58
2022/06/21 02:23:40;;;;;;;4.10;1.35;;;;;;;10.82;100.00;99158.09;5104131;28;20479;-55
2022/06/21 02:26:29;;;;;;;6.68;1.50;;;;;;;10.80;100.00;99166.03;5107720;27;20092;-55
2022/06/21 02:29:14;;;;;;;3.70;1.35;;;;;;;10.68;100.00;99158.59;5104008;27;20130;-56
2022/06/21 02:31:59;;;;;;;3.38;1.50;;;;;;;10.73;100.00;99168.00;5103504;27;20055;-55
2022/06/21 02:34:46;;;;;;;2.30;1.17;;;;;;;10.75;100.00;99166.16;5105165;27;20493;-55
2022/06/21 02:37:30;;;;;;;3.25;1.52;;;;;;;10.82;100.00;99160.72;5107945;27;20063;-57
2022/06/21 02:40:44;;;;;;;4.18;1.75;;;;;;;10.76;100.00;99169.66;5103311;28;20161;-55
2022/06/21 02:43:36;;;;;;;3.13;1.45;;;;;;;10.55;100.00;99167.81;5107617;27;20113;-57
2022/06/21 02:46:26;;;;;;;1.50;1.37;;;;;;;10.58;100.00;99178.16;5103280;27;20048;-58
2022/06/21 02:49:17;;;;;;;4.10;1.90;;;;;;;10.53;100.00;99184.44;5107125;27;20631;-55
2022/06/21 02:52:10;;;;;;;2.47;1.60;;;;;;;10.48;100.00;99185.47;5102788;28;20048;-55
2022/06/21 02:55:10;;;;;;;2.85;1.42;;;;;;;10.61;100.00;99186.78;5103367;27;20047;-55
2022/06/21 02:58:02;;;;;;;2.70;1.48;;;;;;;10.38;100.00;99181.47;5104772;28;20474;-54
2022/06/21 03:00:47;;;;;;;2.40;2.00;;;;;;;10.47;100.00;99176.78;5109284;27;20039;-55
2022/06/21 03:03:33;;;;;;;3.05;1.70;;;;;;;10.47;100.00;99174.16;5110705;27;20115;-54
2022/06/21 03:06:20;;;;;;;3.13;1.85;;;;;;;10.28;100.00;99170.47;5105359;27;20048;-56
2022/06/21 03:09:07;;;;;;;2.13;1.83;;;;;;;10.21;100.00;99163.69;5101736;28;20115;-55
2022/06/21 03:11:58;;;;;;;3.80;2.13;;;;;;;10.36;100.00;99170.19;5104626;27;20607;-56
2022/06/21 03:14:44;;;;;;;1.60;1.50;;;;;;;10.27;100.00;99177.47;5109034;27;20047;-55
2022/06/21 03:17:38;;;;;;;2.85;2.35;;;;;;;10.15;100.00;99167.38;5106260;27;20043;-55
2022/06/21 03:20:23;;;;;;;3.70;2.45;;;;;;;10.19;100.00;99168.97;5101813;27;20048;-57
2022/06/21 03:23:13;;;;;;;4.72;2.55;;;;;;;10.24;100.00;99163.59;5105316;27;20044;-57
2022/06/21 03:26:00;;;;;;;5.30;3.17;;;;;;;10.22;100.00;99170.63;5102880;27;20043;-56
2022/06/21 03:28:45;;;;;;;7.03;3.72;;;;;;;10.20;100.00;99185.53;5103685;28;20081;-55
2022/06/21 03:31:37;;;;;;;3.45;3.00;;;;;;;10.23;100.00;99182.81;5104746;27;20047;-57
2022/06/21 03:34:24;;;;;;;3.63;2.63;;;;;;;10.43;100.00;99188.28;5109988;27;20048;-58
2022/06/21 03:37:08;;;;;;;3.92;2.88;;;;;;;10.43;100.00;99197.88;5101995;28;20059;-57
2022/06/21 03:43:03;;;;;;;5.97;3.17;;;;;;;10.34;100.00;99196.44;5102316;28;20047;-55
2022/06/21 03:45:51;;;;;;;3.60;2.53;;;;;;;10.51;100.00;99191.47;5102488;28;20051;-57
2022/06/21 03:49:09;;;;;;;3.22;2.90;;;;;;;10.57;100.00;99190.41;5106483;27;20341;-57
2022/06/21 03:51:55;;;;;;;5.57;2.70;;;;;;;10.64;100.00;99191.06;5098741;28;20116;-56
2022/06/21 03:54:46;;;;;;;10.85;3.08;;;;;;;10.51;100.00;99190.63;5103422;28;20036;-56
2022/06/21 03:57:35;;;;;;;8.88;2.55;;;;;;;10.57;100.00;99195.66;5102438;28;20056;-54
2022/06/21 04:00:20;;;;;;;6.93;2.83;;;;;;;10.72;100.00;99191.63;5101123;28;20044;-58
2022/06/21 04:03:41;;;;;;;3.95;2.75;;;;;;;10.77;100.00;99198.41;5101339;28;20088;-56
2022/06/21 04:06:38;;;;;;;3.10;2.20;;;;;;;10.95;100.00;99190.78;5082096;28;20055;-55
2022/06/21 04:09:47;;;;;;;3.85;2.55;;;;;;;11.06;100.00;99199.13;5106532;28;20613;-55
2022/06/21 04:12:51;;;;;;;2.63;2.38;;;;;;;10.99;100.00;99208.13;5100176;28;20048;-57
2022/06/21 04:15:57;;;;;;;2.63;2.42;;;;;;;11.05;100.00;99210.53;5105787;28;20047;-57
2022/06/21 04:18:44;;;;;;;4.13;2.70;;;;;;;10.95;100.00;99194.28;5104235;28;20043;-59
2022/06/21 04:21:38;;;;;;;3.38;2.40;;;;;;;11.05;100.00;99199.16;5134045;27;20051;-56
2022/06/21 04:24:28;;;;;;;3.55;2.00;;;;;;;11.25;100.00;99207.19;5103036;28;20075;-55
2022/06/21 04:27:22;;;;;;;4.13;2.65;;;;;;;11.35;100.00;99208.53;5104745;28;20397;-56
2022/06/21 04:30:17;;;;;;;5.75;2.65;;;;;;;11.35;100.00;99199.81;5104272;28;20071;-55
2022/06/21 04:33:08;;;;;;;4.05;1.92;;;;;;;11.41;100.00;99203.06;5102897;28;20048;-54
2022/06/21 04:36:01;;;;;;;3.53;1.98;;;;;;;11.25;100.00;99209.81;5102114;28;20142;-55
2022/06/21 04:38:57;;;;;;;2.55;1.98;;;;;;;11.19;100.00;99231.00;5105190;27;20506;-59
2022/06/21 04:42:06;;;;;;;4.13;2.25;;;;;;;11.29;100.00;99229.75;5103786;27;20282;-55
2022/06/21 04:45:30;;;;;;;2.13;1.73;;;;;;;11.13;100.00;99226.81;5106512;27;20051;-56
2022/06/21 04:48:36;;;;;;;2.05;1.70;;;;;;;11.13;100.00;99228.59;5103795;28;20055;-56
2022/06/21 04:51:27;;;;;;;3.33;1.95;;;;;;;11.32;100.00;99229.63;5103376;27;20048;-56
2022/06/21 04:54:18;;;;;;;3.25;1.55;;;;;;;11.29;100.00;99234.97;5104095;27;20047;-56
2022/06/21 04:57:20;;;;;;;2.65;1.60;;;;;;;11.16;100.00;99231.94;5103993;27;20039;-55
2022/06/21 05:00:10;;;;;;;1.98;1.33;;;;;;;11.15;100.00;99239.88;5103240;27;20051;-54
2022/06/21 05:02:58;;;;;;;2.15;1.20;;;;;;;11.23;100.00;99236.06;5104673;27;20039;-55
2022/06/21 05:05:43;;;;;;;2.65;1.25;;;;;;;11.35;100.00;99231.28;5104055;27;20035;-56
2022/06/21 05:08:28;;;;;;;4.25;1.35;;;;;;;11.32;100.00;99241.88;5101755;27;20047;-55
2022/06/21 05:11:13;;;;;;;1.60;1.50;;;;;;;11.54;100.00;99220.97;5103226;27;20130;-57
2022/06/21 05:13:59;;;;;;;1.77;1.60;;;;;;;11.75;100.00;99238.47;5109383;27;20534;-58
2022/06/21 05:16:44;;;;;;;1.67;1.40;;;;;;;12.41;100.00;99227.97;5107168;27;20047;-55
2022/06/21 05:19:39;;;;;;;1.45;1.17;;;;;;;12.38;100.00;99231.63;5101985;27;20652;-56
2022/06/21 05:22:32;;;;;;;3.25;1.20;;;;;;;12.11;100.00;99235.34;5100391;28;20036;-56
2022/06/21 05:25:34;;;;;;;1.45;1.10;;;;;;;12.42;100.00;99227.09;5105358;28;20862;-55
2022/06/21 05:28:35;;;;;;;2.28;1.33;;;;;;;12.91;100.00;99230.25;5103375;28;20044;-55
2022/06/21 05:31:24;;;;;;;1.98;1.10;;;;;;;12.62;100.00;99221.84;5098545;28;20046;-56
2022/06/21 05:34:22;;;;;;;1.40;1.20;;;;;;;12.51;100.00;99237.22;5105713;27;20051;-56
2022/06/21 05:37:20;;;;;;;2.05;1.13;;;;;;;12.98;100.00;99234.31;5101938;28;20048;-55
2022/06/21 05:40:16;;;;;;;5.28;0.95;;;;;;;12.75;100.00;99237.94;5099863;28;20248;-55
2022/06/21 05:43:01;;;;;;;2.95;1.30;;;;;;;12.66;100.00;99240.09;5104606;27;20040;-57
2022/06/21 05:45:52;;;;;;;1.65;0.80;;;;;;;13.27;100.00;99248.81;5102227;28;20065;-57
2022/06/21 05:48:40;;;;;;;2.70;1.02;;;;;;;13.32;100.00;99248.59;5107611;27;20096;-57
2022/06/21 05:51:28;;;;;;;1.13;0.75;;;;;;;12.78;100.00;99252.72;5104533;27;20040;-55
2022/06/21 05:54:16;;;;;;;2.22;0.60;;;;;;;12.54;100.00;99244.94;5104628;27;20035;-53
2022/06/21 05:57:04;;;;;;;1.80;0.75;;;;;;;12.84;100.00;99245.41;5104544;27;20459;-55
2022/06/21 05:59:48;;;;;;;4.75;1.00;;;;;;;12.93;100.00;99248.56;5102761;28;20434;-55
2022/06/21 06:02:38;;;;;;;3.53;0.70;;;;;;;12.70;100.00;99242.50;5102248;27;20047;-57
2022/06/21 06:05:35;;;;;;;1.08;0.60;;;;;;;13.05;100.00;99246.25;5100729;28;20044;-56
2022/06/21 06:08:25;;;;;;;2.65;0.50;;;;;;;13.71;100.00;99239.81;5104336;27;20047;-55
2022/06/21 06:14:58;;;;;;;3.33;0.40;;;;;;;14.10;100.00;99231.78;5106121;27;20039;-53
2022/06/21 06:17:54;;;;;;;1.15;0.40;;;;;;;14.09;100.00;99237.13;5105628;28;20386;-57
2022/06/21 06:20:41;;;;;;;1.60;0.47;;;;;;;14.02;100.00;99237.44;5106691;27;20096;-57
2022/06/21 06:23:41;;;;;;;1.77;0.60;;;;;;;13.74;100.00;99239.66;5098949;27;20766;-57
2022/06/21 06:26:40;;;;;;;1.00;0.63;;;;;;;13.69;100.00;99239.03;5102242;28;20048;-57
2022/06/21 06:29:36;;;;;;;0.95;0.43;;;;;;;13.84;100.00;99240.94;5103760;28;20667;-56
2022/06/21 06:32:36;;;;;;;1.27;0.40;;;;;;;13.51;100.00;99257.38;5102842;27;20059;-55
2022/06/21 06:35:24;;;;;;;0.70;0.25;;;;;;;14.14;100.00;99259.69;5103122;27;20074;-57
2022/06/21 06:38:13;;;;;;;2.05;0.85;;;;;;;13.65;100.00;99255.88;5106119;27;20036;-56
2022/06/21 06:41:10;;;;;;;1.42;0.70;;;;;;;13.99;100.00;99250.75;5110421;27;20482;-53
2022/06/21 06:44:03;;;;;;;1.52;0.50;;;;;;;14.09;100.00;99253.78;5106299;27;20043;-57
2022/06/21 06:46:51;;;;;;;1.77;0.80;;;;;;;14.35;100.00;99252.50;5106522;27;20487;-53
2022/06/21 06:49:41;;;;;;;1.77;0.75;;;;;;;15.00;100.00;99242.22;5109840;27;20126;-53
2022/06/21 06:52:37;;;;;;;2.42;0.68;;;;;;;16.39;100.00;99243.47;5104684;28;20490;-55
2022/06/21 06:55:54;;;;;;;1.83;0.50;;;;;;;16.31;100.00;99247.41;5104386;27;20036;-57
2022/06/21 06:58:45;;;;;;;3.30;0.60;;;;;;;15.69;100.00;99246.47;5103004;28;20436;-56
2022/06/21 07:01:47;;;;;;;1.17;0.38;;;;;;;15.51;100.00;99244.84;5106476;28;20178;-54
2022/06/21 07:04:37;;;;;;;2.78;0.68;;;;;;;15.02;100.00;99264.13;5104700;28;20386;-56
2022/06/21 07:07:30;;;;;;;1.42;0.50;;;;;;;15.10;100.00;99261.91;5103677;27;20070;-56
2022/06/21 07:10:20;;;;;;;2.45;0.60;;;;;;;14.76;100.00;99270.72;5106768;28;20044;-53
2022/06/21 07:13:04;;;;;;;1.55;0.40;;;;;;;14.90;100.00;99265.59;5110080;27;20044;-56
2022/06/21 07:15:51;;;;;;;3.20;0.63;;;;;;;15.47;100.00;99252.06;5101507;28;20047;-56
2022/06/21 07:18:46;;;;;;;2.13;0.30;;;;;;;15.15;100.00;99264.34;5107361;27;20039;-55
2022/06/21 07:21:31;;;;;;;2.15;0.50;;;;;;;14.60;100.00;99265.38;5108929;27;20047;-56
2022/06/21 07:24:17;;;;;;;3.67;1.48;;;;;;;14.33;100.00;99270.19;5109516;27;20047;-55
2022/06/21 07:27:08;;;;;;;2.78;0.68;;;;;;;14.39;100.00;99267.22;5107233;28;20044;-55
2022/06/21 07:30:02;;;;;;;0.90;0.30;;;;;;;14.35;100.00;99264.84;5108558;28;20039;-55
2022/06/21 07:32:54;;;;;;;1.42;0.73;;;;;;;14.42;100.00;99260.97;5115285;27;20047;-56
2022/06/21 07:35:52;;;;;;;1.75;0.65;;;;;;;14.37;100.00;99260.34;5107638;28;20476;-56
2022/06/21 07:38:50;;;;;;;3.50;1.83;;;;;;;14.37;100.00;99261.22;5108157;28;20040;-55
2022/06/21 07:42:02;;;;;;;2.67;0.60;;;;;;;14.30;100.00;99277.38;5105953;28;20044;-55
2022/06/21 07:44:55;;;;;;;0.65;0.40;;;;;;;14.84;100.00;99280.88;5106187;28;20104;-54
2022/06/21 07:47:43;;;;;;;1.27;0.60;;;;;;;14.57;100.00;99276.06;5106309;28;20130;-56
2022/06/21 07:50:32;;;;;;;2.25;0.88;;;;;;;15.10;100.00;99271.63;5106038;28;20055;-56
2022/06/21 07:53:24;;;;;;;4.20;0.80;;;;;;;15.13;100.00;99271.47;5106798;28;20035;-56
2022/06/21 07:56:15;;;;;;;;;;;;;;;15.47;100.00;99272.31;5112522;28;20043;-56
2022/06/21 07:59:15;;;;;;;1.17;0.60;;;;;;;15.11;100.00;99278.59;5107682;28;19919;-56
2022/06/21 08:08:40;;;;;;;1.73;0.63;;;;;;;15.89;100.00;99287.63;5107603;28;20085;-56
2022/06/21 08:11:36;;;;;;;1.63;0.57;;;;;;;16.40;100.00;99309.44;5103854;28;20428;-56
2022/06/21 08:14:22;;;;;;;1.80;0.75;;;;;;;16.34;100.00;99297.41;5107131;28;20781;-54
2022/06/21 08:17:31;;;;;;;3.42;0.55;;;;;;;17.15;100.00;99301.59;5110550;28;20044;-56
2022/06/21 08:20:45;;;;;;;0.93;0.32;;;;;;;16.66;100.00;99304.44;5107175;27;20043;-59
2022/06/21 08:23:38;;;;;;;4.78;1.23;;;;;;;16.11;100.00;99301.34;5107861;28;20036;-56
2022/06/21 08:26:35;;;;;;;2.53;0.60;;;;;;;17.03;100.00;99287.31;5107181;27;20036;-54
2022/06/21 08:29:36;;;;;;;4.53;1.17;;;;;;;18.00;100.00;99276.91;5110406;27;20044;-57
2022/06/21 08:32:32;;;;;;;1.95;0.60;;;;;;;18.25;100.00;99280.63;5109393;28;20048;-56
2022/06/21 08:35:28;;;;;;;1.67;0.57;;;;;;;17.93;100.00;99280.91;5102940;27;20519;-58
2022/06/21 08:38:30;;;;;;;2.33;0.60;;;;;;;17.02;100.00;99302.31;5106527;27;20418;-58
2022/06/21 08:41:57;;;;;;;3.70;0.50;;;;;;;16.73;100.00;99300.50;5114005;27;20043;-59
2022/06/21 08:45:40;;;;;;;1.20;0.50;;;;;;;16.62;100.00;99295.84;5107547;28;20107;-58
2022/06/21 08:48:25;;;;;;;3.25;0.60;;;;;;;16.21;100.00;99306.13;5112300;27;20047;-60
2022/06/21 08:51:10;;;;;;;3.92;0.65;;;;;;;17.24;100.00;99301.88;5118635;27;20482;-58
2022/06/21 08:54:25;;;;;;;1.27;0.40;;;;;;;17.05;100.00;99298.63;5107261;28;20169;-56
2022/06/21 08:57:25;;;;;;;3.30;0.40;;;;;;;17.18;100.00;99312.84;5112379;27;20040;-58
2022/06/21 09:00:48;;;;;;;3.30;0.50;;;;;;;16.25;100.00;99311.19;5103602;27;20374;-56
2022/06/21 09:03:47;;;;;;;2.33;0.73;;;;;;;16.44;100.00;99315.41;5055888;28;20108;-57
2022/06/21 09:07:12;;;;;;;2.85;0.50;;;;;;;15.73;100.00;99314.03;5102765;27;20047;-56
2022/06/21 09:10:18;;;;;;;1.75;0.50;;;;;;;15.52;100.00;99323.91;5102663;27;20493;-58
2022/06/21 09:13:25;;;;;;;3.20;0.50;;;;;;;15.34;100.00;99333.66;5101883;27;20040;-56
2022/06/21 09:16:17;;;;;;;1.67;0.65;;;;;;;15.76;100.00;99319.16;5103789;27;20062;-58
2022/06/21 09:19:26;;;;;;;6.07;0.60;;;;;;;15.69;100.00;99319.56;5104584;27;20093;-60
2022/06/21 09:22:41;;;;;;;2.38;0.40;;;;;;;15.11;100.00;99334.84;5104850;28;20530;-58
2022/06/21 09:25:37;;;;;;;1.38;0.45;;;;;;;15.06;100.00;99338.66;5103987;28;20075;-56
2022/06/21 09:28:49;;;;;;;5.55;1.20;;;;;;;14.96;100.00;99346.16;5106867;27;20043;-57
2022/06/21 09:31:38;;;;;;;6.18;1.98;;;;;;;14.92;100.00;99348.09;5105761;28;20039;-56
2022/06/21 09:34:32;;;;;;;5.90;1.10;;;;;;;14.93;100.00;99341.91;5104202;27;20051;-57
2022/06/21 09:37:31;;;;;;;1.55;0.60;;;;;;;15.01;100.00;99343.28;5101739;27;20071;-55
2022/06/21 09:40:24;;;;;;;1.48;0.30;;;;;;;15.08;100.00;99344.69;5105299;27;20056;-57
2022/06/21 09:43:21;;;;;;;3.92;1.15;;;;;;;15.63;100.00;99347.09;5104583;27;20047;-57
2022/06/21 09:46:31;;;;;;;2.90;0.57;;;;;;;16.71;100.00;99334.13;5107050;27;20051;-56
2022/06/21 09:49:24;;;;;;;2.30;0.65;;;;;;;16.77;100.00;99333.81;5109133;27;20086;-56
2022/06/21 09:52:17;;;;;;;2.22;0.73;;;;;;;16.53;100.00;99336.03;5107291;28;20036;-56
2022/06/21 09:55:07;;;;;;;2.20;0.80;;;;;;;16.95;100.00;99334.53;5107696;27;20044;-55
2022/06/21 09:58:17;;;;;;;0.90;0.40;;;;;;;16.40;100.00;99325.28;5110372;27;20051;-58
2022/06/21 10:01:25;;;;;;;3.35;0.75;;;;;;;15.61;100.00;99328.72;5111276;27;20043;-60
2022/06/21 10:04:23;;;;;;;1.42;0.52;;;;;;;16.45;100.00;99322.41;5107999;27;20065;-58
2022/06/21 10:07:50;;;;;;;7.82;2.20;;;;;;;18.42;100.00;99334.25;5106115;27;20081;-58
2022/06/21 10:11:00;;;;;;;5.93;0.75;;;;;;;17.43;100.00;99329.91;5103228;27;20047;-55
2022/06/21 10:14:07;;;;;;;1.63;0.50;;;;;;;18.76;100.00;99328.59;5111177;27;20395;-57
2022/06/21 10:17:29;;;;;;;2.25;0.80;;;;;;;19.77;100.00;99321.69;5109535;27;20113;-57
2022/06/21 10:20:52;;;;;;;1.50;0.50;;;;;;;19.55;100.00;99320.50;5121159;27;20050;-58
2022/06/21 10:23:39;;;;;;;1.33;0.38;;;;;;;19.05;100.00;99330.16;5096950;28;20048;-56
2022/06/21 10:27:02;;;;;;;4.95;0.77;;;;;;;17.88;100.00;99320.94;5113688;27;20078;-59
2022/06/21 10:29:50;;;;;;;;;;;;;;;17.03;100.00;99325.19;5110193;27;20048;-62
2022/06/21 10:32:44;;;;;;;2.90;0.47;;;;;;;17.25;100.00;99324.75;5108554;28;19920;-61
2022/06/21 10:35:56;;;;;;;2.42;0.63;;;;;;;17.97;100.00;99320.38;5100569;27;20043;-60
2022/06/21 10:39:19;;;;;;;0.63;0.22;;;;;;;17.72;100.00;99328.97;5101723;28;20048;-58
2022/06/21 10:42:47;;;;;;;2.17;0.77;;;;;;;17.37;100.00;99333.75;5100892;27;20059;-58
2022/06/21 10:45:49;;;;;;;1.85;0.40;;;;;;;18.65;100.00;99345.16;5103169;27;20134;-54
2022/06/21 10:49:14;;;;;;;6.40;1.38;;;;;;;18.21;100.00;99349.75;5101674;28;20043;-58
2022/06/21 10:52:25;;;;;;;3.03;0.50;;;;;;;18.34;100.00;99346.31;5101915;27;20130;-57
2022/06/21 10:55:27;;;;;;;0.95;0.10;;;;;;;18.20;100.00;99348.06;5101582;28;20047;-58
2022/06/21 10:58:29;;;;;;;0.77;0.20;;;;;;;17.88;100.00;99354.53;5104529;27;20504;-57
2022/06/21 11:01:41;;;;;;;0.70;0.20;;;;;;;18.58;100.00;99354.47;5101634;27;20047;-58
2022/06/21 11:04:58;;;;;;;12.10;0.60;;;;;;;18.77;97.93;99360.31;5102527;27;20138;-60
2022/06/21 11:07:50;;;;;;;1.35;0.20;;;;;;;18.56;95.84;99361.69;5079799;28;20048;-57
2022/06/21 11:11:02;;;;;;;2.67;0.20;;;;;;;17.79;98.70;99358.59;5103184;27;20126;-55
2022/06/21 11:13:57;;;;;;;0.70;0.15;;;;;;;18.30;96.05;99363.38;5104616;27;20509;-56
2022/06/21 11:16:57;;;;;;;0.20;0.08;;;;;;;18.83;99.37;99372.31;5104576;28;20534;-57
2022/06/21 11:19:58;;;;;;;3.45;0.10;;;;;;;17.79;98.16;99361.25;5109556;27;20036;-59
2022/06/21 11:23:01;;;;;;;1.75;0.10;;;;;;;17.79;100.00;99361.25;5106220;27;20349;-58
2022/06/21 11:25:52;;;;;;;0.20;0.00;;;;;;;18.73;98.38;99358.81;5102679;27;20066;-60
2022/06/21 11:28:48;;;;;;;0.75;0.20;;;;;;;19.00;96.68;99358.78;5106311;27;20553;-57
2022/06/21 11:31:42;;;;;;;0.65;0.17;;;;;;;19.87;90.21;99351.97;5104044;27;20039;-57
2022/06/21 11:34:42;;;;;;;1.75;0.10;;;;;;;19.06;94.07;99366.34;5104979;27;20047;-58
2022/06/21 11:37:57;;;;;;;1.45;0.10;;;;;;;18.26;95.81;99362.69;5107993;27;20055;-59
2022/06/21 11:41:02;;;;;;;2.15;0.20;;;;;;;18.22;98.89;99364.69;5101753;27;20483;-57
2022/06/21 11:43:50;;;;;;;1.15;0.35;;;;;;;18.59;98.09;99356.16;5105061;27;20191;-58
2022/06/21 11:46:47;;;;;;;1.00;0.10;;;;;;;18.93;98.37;99357.50;5107054;27;20680;-59
2022/06/21 11:50:00;;;;;;;0.47;0.10;;;;;;;19.08;97.39;99356.47;5110046;28;20047;-54
2022/06/21 11:53:14;;;;;;;0.60;0.20;;;;;;;20.28;96.03;99357.00;5103583;27;20047;-62
2022/06/21 11:56:17;;;;;;;1.13;0.15;;;;;;;20.52;97.86;99345.56;5104595;28;20071;-59
2022/06/21 11:59:06;;;;;;;4.40;1.33;;;;;;;19.32;96.63;99351.28;5100715;28;20047;-58
2022/06/21 12:02:11;;;;;;;1.42;0.35;;;;;;;18.99;97.71;99364.22;5097392;28;20493;-55
2022/06/21 12:04:59;;;;;;;5.20;1.00;;;;;;;20.12;94.81;99353.75;5101655;28;20051;-56
2022/06/21 12:07:54;;;;;;;0.52;0.20;;;;;;;19.34;95.88;99359.19;5104747;28;20379;-56
2022/06/21 12:10:49;;;;;;;1.40;0.43;;;;;;;20.06;96.08;99357.69;5104860;28;20075;-56
2022/06/21 12:13:59;;;;;;;2.83;0.65;;;;;;;19.61;95.03;99362.56;5103666;28;20043;-58
2022/06/21 12:16:52;;;;;;;0.73;0.22;;;;;;;20.36;94.81;99356.44;5099102;28;20054;-55
2022/06/21 12:19:43;;;;;;;1.33;0.30;;;;;;;18.91;94.74;99373.53;5112490;28;20733;-60
2022/06/21 12:23:03;;;;;;;0.82;0.38;;;;;;;19.13;94.43;99359.66;5100512;28;20040;-58
2022/06/21 12:25:48;;;;;;;1.77;0.30;;;;;;;19.66;94.99;99356.13;5045154;28;20115;-57
2022/06/21 12:28:36;;;;;;;0.90;0.30;;;;;;;20.36;92.18;99343.13;5104081;28;20047;-57
2022/06/21 12:31:30;;;;;;;2.55;0.28;;;;;;;21.13;93.91;99338.31;5103252;28;20081;-59
2022/06/21 12:34:41;;;;;;;3.28;0.70;;;;;;;21.15;89.75;99344.34;5110065;28;20118;-59
2022/06/21 12:37:41;;;;;;;0.80;0.10;;;;;;;20.04;88.45;99334.81;5101836;28;20051;-57
2022/06/21 12:40:38;;;;;;;0.55;0.10;;;;;;;21.05;85.80;99338.03;5101157;28;20039;-58
2022/06/21 12:43:35;;;;;;;2.38;0.10;;;;;;;21.12;89.84;99338.41;5103259;28;20043;-60
2022/06/21 12:46:30;;;;;;;0.80;0.10;;;;;;;21.36;87.06;99339.25;5097139;28;20110;-60
2022/06/21 12:49:52;;;;;;;0.32;0.20;;;;;;;20.74;85.29;99328.84;5096378;28;20052;-57
2022/06/21 12:52:57;;;;;;;2.35;0.20;;;;;;;20.28;87.34;99326.91;5101441;28;20048;-57
2022/06/21 12:55:42;;;;;;;2.17;0.10;;;;;;;19.76;85.46;99334.13;5095791;28;20048;-57
2022/06/21 12:58:40;;;;;;;1.35;0.28;;;;;;;19.19;89.63;99337.16;5099873;28;20051;-56
2022/06/21 13:01:53;;;;;;;2.72;0.10;;;;;;;20.40;86.82;99330.44;5103250;27;20048;-57
2022/06/21 13:04:51;;;;;;;1.90;0.25;;;;;;;20.81;84.44;99331.91;5109512;27;20059;-59
2022/06/21 13:08:16;;;;;;;1.20;0.20;;;;;;;20.22;86.62;99337.97;5102822;28;20046;-57
2022/06/21 13:11:11;;;;;;;1.40;0.20;;;;;;;20.12;89.53;99332.47;5109600;27;20032;-58
2022/06/21 13:14:21;;;;;;;0.50;0.25;;;;;;;20.40;88.31;99335.78;5109963;27;20101;-58
2022/06/21 13:17:50;;;;;;;0.80;0.45;;;;;;;19.81;87.73;99336.44;5107442;27;20185;-58
2022/06/21 13:20:58;;;;;;;2.13;0.65;;;;;;;20.02;90.38;99332.28;5108961;27;20046;-56
2022/06/21 13:24:11;;;;;;;0.98;0.40;;;;;;;19.29;90.15;99342.69;5105446;27;20031;-57
2022/06/21 13:27:15;;;;;;;2.28;0.35;;;;;;;19.19;90.15;99349.59;5113273;27;20050;-58
2022/06/21 13:30:54;;;;;;;0.47;0.22;;;;;;;20.35;89.98;99325.50;5104202;27;20036;-59
2022/06/21 13:33:38;;;;;;;1.10;0.28;;;;;;;19.75;88.43;99326.25;5072791;28;20052;-59
2022/06/21 13:36:35;;;;;;;1.38;0.20;;;;;;;19.94;88.24;99329.31;5100112;27;20043;-57
2022/06/21 13:39:35;;;;;;;0.63;0.20;;;;;;;20.21;88.48;99322.97;5100988;27;20040;-58
2022/06/21 13:42:39;;;;;;;0.40;0.20;;;;;;;20.22;85.57;99335.31;5110677;27;20510;-59
2022/06/21 13:45:40;;;;;;;1.73;0.30;;;;;;;20.41;84.78;99324.16;5100072;27;20059;-54
2022/06/21 13:48:48;;;;;;;0.55;0.20;;;;;;;19.82;81.71;99317.75;5102854;27;20763;-58
2022/06/21 13:52:01;;;;;;;0.40;0.17;;;;;;;19.69;84.60;99334.66;5099892;27;20620;-57
2022/06/21 13:54:52;;;;;;;3.58;0.30;;;;;;;19.54;84.85;99328.59;5103901;27;20075;-59
2022/06/21 13:57:43;;;;;;;2.78;0.30;;;;;;;19.89;84.31;99325.28;5100323;27;20104;-55
2022/06/21 14:00:38;;;;;;;1.52;0.50;;;;;;;20.38;87.49;99321.75;5104897;28;20139;-59